WICT2: Wichita River At Wichita Falls, TX

Data processed at Thu May 23 2019 23:50


All information presented herein is the property of the government of the United States of America and may be revised or deleted at any time without prior notice.
Dissemination of this information without the expressed written consent of the Public Affairs Office, Tulsa District U.S. Army Corps of Engineers is strictly prohibited.
These data are gathered electronically and, as presented, have not undergone any form of quality control. These data are not guaranteed to be valid or correct.
Go to home page.
Go to station list.
Go to home page.

Upstream stations:

Downstream station:
Previous Day
Next Day
Current Day
    
SHEF ID:       WICT2     Wichita Rv at Wichita Falls, TX
STATION TYPE:  
Regulating: Stage =    18.50, Flow =     5482

               PRECIP     STAGE  RIV-FLOW  WTR-TEMP   CONDUCT   VOLTAGE  BAT-LOAD
                   in        ft       cfs         F   umho/cm      volt      volt
              Ccp-Rev   Ccp-Rev   Ccp-Rev   Ccp-Rev   Ccp-Rev   Ccp-Rev   Ccp-Rev
(US/Central)
05/23 00:00      0.00     12.30      2614     71.89      1472      ----     12.65
05/23 01:00      0.00     12.31      2618     71.89      1472      ----     12.65
05/23 02:00      0.00     12.32      2622     71.89      1471      ----     12.65
05/23 03:00      0.00     12.32      2622     71.87      1470      ----     12.57
05/23 04:00      0.00     12.35      2634     71.85      1470      ----     12.57
05/23 05:00      0.00     12.37      2642     71.85      1470      ----     12.57
05/23 06:00      0.00     12.38      2646     71.83      1470      ----     12.57
05/23 07:00      0.00     12.40      2654     71.82      1469      ----     12.57
05/23 08:00      0.00     12.42      2661     71.80      1469      ----     12.57
05/23 09:00      0.00     12.45      2673     71.78      1469      ----     12.57
05/23 10:00      0.00     12.47      2681     71.78      1468      ----     13.05
05/23 11:00      0.00     12.51      2697     71.80      1468      ----     13.05
05/23 12:00      0.00     12.53      2705     71.83      1469      ----     13.13
05/23 13:00      0.00     12.57      2721     71.91      1470      ----     13.21
05/23 14:00      0.00     12.61      2737     71.98      1471      ----     13.13
05/23 15:00      0.00     12.63      2745     72.09      1471      ----     12.97
05/23 16:00      0.00     12.66      2757     72.19      1472      ----     12.97
05/23 17:00      0.00     12.68      2765     72.32      1472      ----     12.89
05/23 18:00      0.00     12.72      2781     72.41      1473      ----     12.89
05/23 19:00      0.00     12.77      2801     72.48      1473      ----     12.81
05/23 20:00      0.00     12.81      2817     72.55      1472      ----     12.73
05/23 21:00      0.00     12.86      2837     72.59      1472      ----     12.73
05/23 22:00      0.00     12.91      2858     72.61      1471      ----     12.73
05/23 23:00      ----      ----      ----      ----      ----      ----      ----